aviador You're here:

DTTD Decoded Metar

REMADA in TUNISIA
Report Time2017-12-12 15:00:00
UTC Time2017-12-12 15:51:57
Flight Rules vfr VFR
Wind250° at 06 kt
W.Decomp.*RWY 20: 3.9 kt HW 4.5 kt RCW
W.Rank250° ranks 10
Current wind is below 250° avg. (8.3)
Visibility9999 m
Phenomena:N/A
Clouds:N/A
Expected CloudBase > 9,200 ft AGL from Temp-Dew spread
CeilingNone
Temp21°C (ISA +8)
Dew Point-2°C (21% RH)
AAT16.6°C
QNH1018 hPa
Density Alt1,824 ft
Elevation988 ft
Report Wrong Elevation
Raw Report
DTTD 121500Z 25006KT 190V320 CAVOK 21/M02 Q1018=

Extra information for DTTD:More info

Metar Taf Metar & Taf Last 4 Metars F.Rules Stats Wind Profile Meteogram Temp Stats Airport Information Weather charts Add Link Nearby VenuesMetar ALERT Operation Metar Decoded Social comments